createdAt,value
2023-04-28T00:01:44.781Z,9.45
2023-04-28T00:04:12.036Z,8.88
2023-04-28T00:06:41.105Z,9.40
2023-04-28T00:09:11.098Z,7.53
2023-04-28T00:11:38.604Z,8.73
2023-04-28T00:14:06.060Z,11.85
2023-04-28T00:16:32.982Z,8.98
2023-04-28T00:18:59.863Z,8.23
2023-04-28T00:21:28.814Z,7.55
2023-04-28T00:23:55.904Z,9.52
2023-04-28T00:26:23.100Z,9.57
2023-04-28T00:28:50.214Z,9.43
2023-04-28T00:31:17.669Z,9.55
2023-04-28T00:33:45.152Z,7.93
2023-04-28T00:36:12.099Z,10.70
2023-04-28T00:38:39.053Z,7.47
2023-04-28T00:41:06.649Z,8.88
2023-04-28T00:43:50.601Z,11.00
2023-04-28T00:46:34.270Z,9.95
2023-04-28T00:49:02.404Z,10.52
2023-04-28T00:51:29.330Z,14.13
2023-04-28T00:53:57.082Z,7.72
2023-04-28T00:56:23.883Z,11.75
2023-04-28T00:58:50.982Z,10.80
2023-04-28T01:01:18.215Z,7.88
2023-04-28T01:03:46.084Z,11.98
2023-04-28T01:06:14.055Z,12.05
2023-04-28T01:08:42.414Z,8.30
2023-04-28T01:11:13.986Z,9.63
2023-04-28T01:13:41.351Z,9.10
2023-04-28T01:16:08.216Z,7.78
2023-04-28T01:18:35.416Z,9.57
2023-04-28T01:21:04.082Z,7.03
2023-04-28T01:23:31.254Z,9.48
2023-04-28T01:25:58.440Z,12.63
2023-04-28T01:28:25.303Z,7.10
2023-04-28T01:30:52.086Z,7.95
2023-04-28T01:33:18.977Z,13.43
2023-04-28T01:35:46.013Z,9.85
2023-04-28T01:38:12.853Z,7.60
2023-04-28T01:40:39.761Z,8.55
2023-04-28T01:43:07.014Z,7.72
2023-04-28T01:45:33.808Z,8.35
2023-04-28T01:48:00.768Z,9.63
2023-04-28T01:50:27.629Z,9.07
2023-04-28T01:52:54.374Z,9.77
2023-04-28T01:55:21.581Z,10.77
2023-04-28T01:57:48.435Z,8.07
2023-04-28T02:00:15.635Z,8.30
2023-04-28T02:02:42.614Z,8.45
2023-04-28T02:05:09.516Z,6.88
2023-04-28T02:07:36.434Z,8.75
2023-04-28T02:10:03.494Z,7.95
2023-04-28T02:12:30.459Z,7.50
2023-04-28T02:14:57.593Z,9.35
2023-04-28T02:17:24.486Z,8.57
2023-04-28T02:20:00.203Z,8.25
2023-04-28T02:22:27.077Z,9.35
2023-04-28T02:24:53.929Z,10.02
2023-04-28T02:27:21.681Z,7.20
2023-04-28T02:29:48.701Z,8.35
2023-04-28T02:32:15.613Z,7.10
2023-04-28T02:34:42.382Z,7.50
2023-04-28T02:37:09.501Z,7.82
2023-04-28T02:39:36.375Z,8.52
2023-04-28T02:42:05.478Z,10.00
2023-04-28T02:44:32.454Z,9.65
2023-04-28T02:46:59.415Z,8.88
2023-04-28T02:49:26.292Z,9.07
2023-04-28T02:51:53.143Z,6.90
2023-04-28T02:54:27.601Z,7.20
2023-04-28T02:56:58.510Z,8.82
2023-04-28T02:59:25.836Z,6.88
2023-04-28T03:01:52.662Z,6.75
2023-04-28T03:04:20.161Z,7.00
2023-04-28T03:06:47.492Z,11.65
2023-04-28T03:09:14.861Z,8.77
2023-04-28T03:11:41.821Z,10.93
2023-04-28T03:14:08.736Z,7.65
2023-04-28T03:16:36.149Z,7.15
2023-04-28T03:19:03.592Z,8.05
2023-04-28T03:21:30.548Z,7.70
2023-04-28T03:23:57.361Z,7.15
2023-04-28T03:26:24.306Z,11.38
2023-04-28T03:28:51.211Z,11.57
2023-04-28T03:31:18.174Z,9.30
2023-04-28T03:33:47.166Z,9.73
2023-04-28T03:36:16.409Z,9.15
2023-04-28T03:38:43.814Z,10.07
2023-04-28T03:41:10.891Z,9.88
2023-04-28T03:43:37.848Z,7.45
2023-04-28T03:46:05.206Z,8.23
2023-04-28T03:48:32.187Z,9.85
2023-04-28T03:50:59.082Z,9.85
2023-04-28T03:53:26.024Z,8.25
2023-04-28T03:55:52.855Z,10.80
2023-04-28T03:58:19.722Z,7.70
2023-04-28T04:00:46.657Z,8.65
2023-04-28T04:03:13.638Z,7.75
2023-04-28T04:05:41.505Z,9.35
2023-04-28T04:08:08.514Z,7.13
2023-04-28T04:10:35.429Z,9.65
2023-04-28T04:13:02.324Z,7.22
2023-04-28T04:15:29.221Z,7.97
2023-04-28T04:17:56.464Z,8.27
2023-04-28T04:20:23.340Z,7.82
2023-04-28T04:22:50.316Z,8.10
2023-04-28T04:25:17.243Z,8.40
2023-04-28T04:27:44.292Z,9.05
2023-04-28T04:30:11.759Z,9.52
2023-04-28T04:32:38.646Z,8.00
2023-04-28T04:35:05.946Z,9.60
2023-04-28T04:37:34.023Z,9.95
2023-04-28T04:40:01.297Z,10.48
2023-04-28T04:42:28.171Z,8.07
2023-04-28T04:44:55.013Z,8.68
2023-04-28T04:47:21.876Z,7.95
2023-04-28T04:49:50.157Z,10.43
2023-04-28T04:52:17.142Z,7.85
2023-04-28T04:54:44.056Z,8.82
2023-04-28T04:57:11.575Z,10.38
2023-04-28T04:59:38.427Z,8.48
2023-04-28T05:02:05.417Z,9.35
2023-04-28T05:04:32.746Z,11.38
2023-04-28T05:06:59.701Z,12.18
2023-04-28T05:09:26.864Z,12.65
2023-04-28T05:11:53.701Z,10.27
2023-04-28T05:14:20.838Z,9.38
2023-04-28T05:16:47.758Z,13.70
2023-04-28T05:19:14.713Z,13.55
2023-04-28T05:21:41.583Z,14.27
2023-04-28T05:24:08.438Z,10.30
2023-04-28T05:26:36.441Z,9.85
2023-04-28T05:29:03.265Z,10.07
2023-04-28T05:31:30.191Z,12.60
2023-04-28T05:33:57.241Z,11.52
2023-04-28T05:36:24.190Z,11.85
2023-04-28T05:38:51.585Z,10.35
2023-04-28T05:41:18.471Z,12.15
2023-04-28T05:43:46.457Z,13.02
2023-04-28T05:46:28.538Z,11.90
2023-04-28T05:48:57.645Z,11.43
2023-04-28T05:51:24.545Z,10.85
2023-04-28T05:53:51.494Z,14.73
2023-04-28T05:56:18.434Z,13.77
2023-04-28T05:58:45.415Z,14.75
2023-04-28T06:01:12.265Z,13.95
2023-04-28T06:03:42.897Z,12.23
2023-04-28T06:06:11.003Z,16.58
2023-04-28T06:08:38.754Z,13.60
2023-04-28T06:11:06.016Z,13.95
2023-04-28T06:13:33.148Z,12.95
2023-04-28T06:16:00.174Z,16.92
2023-04-28T06:18:27.449Z,14.90
2023-04-28T06:20:54.213Z,15.00
2023-04-28T06:23:21.195Z,12.65
2023-04-28T06:25:48.142Z,14.43
2023-04-28T06:28:15.123Z,15.63
2023-04-28T06:30:42.132Z,15.07
2023-04-28T06:33:09.339Z,13.63
2023-04-28T06:35:38.786Z,14.52
2023-04-28T06:38:06.494Z,17.77
2023-04-28T06:40:33.362Z,14.05
2023-04-28T06:43:00.165Z,13.82
2023-04-28T06:45:27.037Z,15.05
2023-04-28T06:47:55.958Z,16.48
2023-04-28T06:50:24.054Z,15.90
2023-04-28T06:52:51.120Z,15.18
2023-04-28T06:55:18.059Z,14.73
2023-04-28T06:57:44.920Z,13.40
2023-04-28T07:00:12.725Z,12.82
2023-04-28T07:02:39.842Z,16.70
2023-04-28T07:05:07.369Z,15.30
2023-04-28T07:07:34.303Z,16.23
2023-04-28T07:10:01.263Z,14.20
2023-04-28T07:12:28.273Z,14.55
2023-04-28T07:14:55.914Z,15.93
2023-04-28T07:17:22.865Z,17.33
2023-04-28T07:19:52.534Z,17.08
2023-04-28T07:22:19.329Z,15.50
2023-04-28T07:24:46.353Z,18.45
2023-04-28T07:27:13.251Z,16.33
2023-04-28T07:29:40.112Z,15.63
2023-04-28T07:32:10.691Z,17.70
2023-04-28T07:34:38.062Z,17.80
2023-04-28T07:37:07.095Z,17.45
2023-04-28T07:39:35.350Z,17.47
2023-04-28T07:42:03.269Z,15.82
2023-04-28T07:44:31.223Z,17.50
2023-04-28T07:46:59.913Z,18.45
2023-04-28T07:49:31.331Z,18.15
2023-04-28T07:51:58.316Z,22.35
2023-04-28T07:54:25.727Z,14.00
2023-04-28T07:56:53.107Z,17.00
2023-04-28T07:59:20.190Z,17.50
2023-04-28T08:01:47.196Z,17.45
2023-04-28T08:04:14.801Z,17.75
2023-04-28T08:06:42.170Z,20.02
2023-04-28T08:09:09.067Z,17.58
2023-04-28T08:11:36.977Z,17.17
2023-04-28T08:14:04.054Z,17.27
2023-04-28T08:16:31.762Z,16.98
2023-04-28T08:19:00.524Z,20.60
2023-04-28T08:21:27.495Z,16.90
2023-04-28T08:23:54.457Z,21.27
2023-04-28T08:26:21.438Z,18.60
2023-04-28T08:28:48.411Z,19.00
2023-04-28T08:31:15.348Z,22.48
2023-04-28T08:33:48.571Z,22.42
2023-04-28T08:36:15.561Z,21.90
2023-04-28T08:38:43.149Z,20.05
2023-04-28T08:41:10.534Z,20.30
2023-04-28T08:43:37.670Z,24.05
2023-04-28T08:46:08.788Z,21.02
2023-04-28T08:48:42.072Z,18.20
2023-04-28T08:51:09.580Z,20.52
2023-04-28T08:54:11.318Z,25.25
2023-04-28T08:56:31.995Z,21.13
2023-04-28T08:59:03.788Z,22.98
2023-04-28T09:01:31.659Z,18.27
2023-04-28T09:04:03.175Z,19.98
2023-04-28T09:06:38.920Z,20.73
2023-04-28T09:09:22.713Z,18.10
2023-04-28T09:11:58.312Z,18.45
2023-04-28T09:14:26.379Z,17.13
2023-04-28T09:16:53.965Z,17.00
2023-04-28T09:19:21.255Z,16.83
2023-04-28T09:21:56.143Z,18.27
2023-04-28T09:24:37.054Z,17.65
2023-04-28T09:27:05.793Z,17.02
2023-04-28T09:29:33.015Z,16.85
2023-04-28T09:32:20.908Z,18.75
2023-04-28T09:34:50.243Z,17.58
2023-04-28T09:37:21.850Z,16.23
2023-04-28T09:39:53.948Z,14.77
2023-04-28T09:42:43.228Z,16.20
2023-04-28T09:45:12.122Z,15.52
2023-04-28T09:47:43.660Z,15.32
2023-04-28T09:50:15.268Z,14.20
2023-04-28T09:52:45.974Z,16.10
2023-04-28T09:55:13.254Z,13.52
2023-04-28T09:57:40.712Z,12.57
2023-04-28T10:00:09.559Z,12.95
2023-04-28T10:05:13.002Z,12.48
2023-04-28T10:07:41.318Z,14.30
2023-04-28T10:10:08.867Z,15.13
2023-04-28T10:12:38.782Z,15.88
2023-04-28T10:15:07.781Z,12.65
2023-04-28T10:17:36.750Z,12.07
2023-04-28T10:20:05.304Z,15.52
2023-04-28T10:23:01.201Z,12.75
2023-04-28T10:25:32.469Z,14.98
2023-04-28T10:28:01.030Z,13.55
2023-04-28T10:30:31.289Z,14.25
2023-04-28T10:35:48.512Z,16.20
2023-04-28T10:38:20.792Z,16.33
2023-04-28T10:40:49.295Z,17.08
2023-04-28T10:43:31.995Z,17.00
2023-04-28T10:46:01.189Z,15.88
2023-04-28T10:48:34.717Z,17.37
2023-04-28T10:51:08.065Z,18.90
2023-04-28T10:53:47.397Z,18.15
2023-04-28T10:56:25.381Z,19.17
2023-04-28T10:58:53.701Z,20.65
2023-04-28T11:01:26.401Z,19.88
2023-04-28T11:04:00.924Z,19.83
2023-04-28T11:06:40.093Z,19.13
2023-04-28T11:09:12.678Z,20.55
2023-04-28T11:11:41.117Z,18.70
2023-04-28T11:14:19.571Z,20.67
2023-04-28T11:17:00.992Z,19.00
2023-04-28T11:19:29.908Z,18.70
2023-04-28T11:21:58.557Z,18.40
2023-04-28T11:24:29.963Z,16.67
2023-04-28T11:26:58.116Z,15.40
2023-04-28T11:29:39.468Z,13.98
2023-04-28T11:32:08.564Z,12.05
2023-04-28T11:34:36.625Z,12.23
2023-04-28T11:37:03.676Z,11.68
2023-04-28T11:39:32.231Z,14.57
2023-04-28T11:42:02.383Z,10.77
2023-04-28T11:44:31.277Z,12.95
2023-04-28T11:47:01.209Z,13.05
2023-04-28T11:51:57.421Z,13.55
2023-04-28T11:54:26.070Z,13.52
2023-04-28T11:56:54.843Z,10.95
2023-04-28T11:59:27.669Z,10.55
2023-04-28T12:01:59.939Z,12.15
2023-04-28T12:04:41.469Z,12.38
2023-04-28T12:07:16.605Z,11.48
2023-04-28T12:09:45.416Z,12.60
2023-04-28T12:12:14.787Z,10.27
2023-04-28T12:15:05.344Z,9.52
2023-04-28T12:17:34.028Z,9.25
2023-04-28T12:20:03.000Z,9.38
2023-04-28T12:22:31.028Z,7.72
2023-04-28T12:25:08.289Z,7.25
2023-04-28T12:27:39.180Z,8.27
2023-04-28T12:30:21.120Z,5.55
2023-04-28T12:32:48.494Z,5.47
2023-04-28T12:35:16.129Z,4.28
2023-04-28T12:37:46.505Z,6.70
2023-04-28T12:42:41.720Z,6.28
2023-04-28T12:45:11.671Z,6.25
2023-04-28T12:47:39.738Z,5.28
2023-04-28T12:50:07.669Z,5.78
2023-04-28T12:52:35.649Z,4.63
2023-04-28T12:55:06.034Z,3.97
2023-04-28T12:59:59.856Z,5.07
2023-04-28T13:02:26.831Z,4.13
2023-04-28T13:04:54.011Z,4.47
2023-04-28T13:07:21.988Z,6.75
2023-04-28T13:09:48.888Z,4.72
2023-04-28T13:12:15.633Z,6.65
2023-04-28T13:14:42.443Z,5.85
2023-04-28T13:17:10.450Z,8.82
2023-04-28T13:19:37.452Z,5.68
2023-04-28T13:22:05.994Z,6.50
2023-04-28T13:24:35.898Z,5.75
2023-04-28T13:27:04.201Z,5.95
2023-04-28T13:29:31.110Z,5.72
2023-04-28T13:31:58.015Z,6.38
2023-04-28T13:34:24.823Z,6.30
2023-04-28T13:36:54.041Z,5.40
2023-04-28T13:39:22.271Z,6.10
2023-04-28T13:41:49.498Z,6.13
2023-04-28T13:44:17.073Z,6.15
2023-04-28T13:46:44.065Z,5.80
2023-04-28T13:49:11.016Z,5.57
2023-04-28T13:51:38.870Z,5.95
2023-04-28T13:54:08.863Z,6.35
2023-04-28T13:56:36.588Z,5.18
2023-04-28T13:59:03.911Z,5.90
2023-04-28T14:01:31.262Z,6.25
2023-04-28T14:03:58.303Z,5.80
2023-04-28T14:06:26.090Z,6.95
2023-04-28T14:08:53.083Z,6.75
2023-04-28T14:11:19.953Z,5.93
2023-04-28T14:13:47.099Z,6.68
2023-04-28T14:16:13.975Z,9.48
2023-04-28T14:18:41.352Z,7.35
2023-04-28T14:21:08.507Z,8.45
2023-04-28T14:23:35.702Z,7.50
2023-04-28T14:26:02.795Z,7.25
2023-04-28T14:28:29.675Z,7.60
2023-04-28T14:30:56.721Z,7.50
2023-04-28T14:33:24.272Z,7.60
2023-04-28T14:35:51.211Z,9.32
2023-04-28T14:38:18.171Z,8.60
2023-04-28T14:40:45.041Z,10.80
2023-04-28T14:43:11.942Z,10.57
2023-04-28T14:45:39.011Z,9.75
2023-04-28T14:48:07.779Z,9.88
2023-04-28T14:50:35.131Z,12.88
2023-04-28T14:53:06.873Z,11.80
2023-04-28T14:55:33.834Z,14.00
2023-04-28T14:58:00.848Z,14.45
2023-04-28T15:00:27.717Z,14.13
2023-04-28T15:02:54.790Z,15.30
2023-04-28T15:05:22.042Z,15.52
2023-04-28T15:07:48.859Z,15.57
2023-04-28T15:10:16.023Z,15.90
2023-04-28T15:12:43.166Z,19.63
2023-04-28T15:15:10.416Z,17.65
2023-04-28T15:17:37.494Z,18.02
2023-04-28T15:20:05.392Z,18.33
2023-04-28T15:22:32.298Z,17.98
2023-04-28T15:24:59.010Z,18.52
2023-04-28T15:27:25.857Z,15.82
2023-04-28T15:29:52.785Z,17.17
2023-04-28T15:32:19.641Z,13.25
2023-04-28T15:34:46.527Z,12.90
2023-04-28T15:37:38.282Z,13.65
2023-04-28T15:40:10.746Z,12.57
2023-04-28T15:42:38.676Z,13.10
2023-04-28T15:45:06.315Z,14.40
2023-04-28T15:47:33.287Z,15.63
2023-04-28T15:50:00.351Z,12.60
2023-04-28T15:52:27.504Z,18.15
2023-04-28T15:54:56.048Z,17.15
2023-04-28T15:57:22.995Z,17.95
2023-04-28T15:59:51.711Z,16.00
2023-04-28T16:02:18.949Z,19.05
2023-04-28T16:04:46.873Z,19.88
2023-04-28T16:07:14.226Z,16.42
2023-04-28T16:09:41.168Z,16.52
2023-04-28T16:12:08.593Z,19.88
2023-04-28T16:14:36.400Z,19.90
2023-04-28T16:17:03.561Z,18.80
2023-04-28T16:19:30.387Z,20.77
2023-04-28T16:21:57.335Z,23.40
2023-04-28T16:24:24.747Z,18.55
2023-04-28T16:26:51.677Z,17.42
2023-04-28T16:29:18.485Z,19.58
2023-04-28T16:31:45.718Z,19.10
2023-04-28T16:34:12.710Z,16.65
2023-04-28T16:36:40.186Z,14.50
2023-04-28T16:39:07.107Z,16.48
2023-04-28T16:41:34.153Z,16.88
2023-04-28T16:44:00.926Z,17.60
2023-04-28T16:46:27.801Z,17.25
2023-04-28T16:48:54.734Z,14.82
2023-04-28T16:51:22.217Z,14.75
2023-04-28T16:53:48.995Z,14.98
2023-04-28T16:56:15.972Z,17.27
2023-04-28T16:58:42.963Z,15.57
2023-04-28T17:01:10.024Z,12.13
2023-04-28T17:03:41.574Z,14.70
2023-04-28T17:06:09.093Z,10.35
2023-04-28T17:08:36.012Z,9.43
2023-04-28T17:11:04.925Z,11.32
2023-04-28T17:13:33.000Z,11.57
2023-04-28T17:16:00.408Z,8.73
2023-04-28T17:18:27.886Z,10.77
2023-04-28T17:20:55.912Z,9.70
2023-04-28T17:23:22.781Z,9.30
2023-04-28T17:25:49.547Z,9.35
2023-04-28T17:28:16.401Z,8.60
2023-04-28T17:30:47.179Z,7.03
2023-04-28T17:33:15.166Z,7.35
2023-04-28T17:35:42.016Z,6.65
2023-04-28T17:38:09.066Z,6.05
2023-04-28T17:40:36.169Z,7.78
2023-04-28T17:43:04.057Z,4.63
2023-04-28T17:45:30.955Z,4.90
2023-04-28T17:48:00.651Z,4.55
2023-04-28T17:50:27.920Z,4.90
2023-04-28T17:52:55.013Z,4.65
2023-04-28T17:55:21.812Z,5.07
2023-04-28T17:57:48.797Z,3.33
2023-04-28T18:00:16.015Z,3.50
2023-04-28T18:02:42.813Z,3.35
2023-04-28T18:05:10.092Z,5.18
2023-04-28T18:07:37.542Z,4.18
2023-04-28T18:10:04.525Z,5.53
2023-04-28T18:12:31.393Z,4.95
2023-04-28T18:14:58.215Z,5.63
2023-04-28T18:17:26.156Z,7.15
2023-04-28T18:19:56.567Z,9.77
2023-04-28T18:24:50.643Z,15.77
2023-04-28T18:27:17.629Z,14.40
2023-04-28T18:29:44.986Z,13.48
2023-04-28T18:32:14.431Z,13.73
2023-04-28T18:34:41.593Z,18.00
2023-04-28T18:37:09.424Z,15.82
2023-04-28T18:39:36.658Z,18.10
2023-04-28T18:42:04.318Z,17.88
2023-04-28T18:44:31.239Z,21.83
2023-04-28T18:46:58.607Z,21.20
2023-04-28T18:49:25.778Z,20.48
2023-04-28T18:51:52.835Z,20.52
2023-04-28T18:54:19.832Z,20.50
2023-04-28T18:56:48.029Z,25.65
2023-04-28T18:59:14.878Z,25.65
2023-04-28T19:01:41.908Z,25.55
2023-04-28T19:04:09.067Z,24.55
2023-04-28T19:06:36.455Z,24.77
2023-04-28T19:09:03.518Z,25.67
2023-04-28T19:11:30.580Z,23.45
2023-04-28T19:13:58.151Z,26.10
2023-04-28T19:16:25.155Z,26.92
2023-04-28T19:18:52.159Z,27.75
2023-04-28T19:21:19.103Z,27.52
2023-04-28T19:23:46.190Z,27.02
2023-04-28T19:26:13.468Z,29.58
2023-04-28T19:28:40.380Z,31.63
2023-04-28T19:31:08.108Z,29.40
2023-04-28T19:33:34.987Z,30.85
2023-04-28T19:36:01.965Z,31.00
2023-04-28T19:38:28.917Z,32.40
2023-04-28T19:41:03.343Z,25.77
2023-04-28T19:43:30.755Z,33.92
2023-04-28T19:45:57.961Z,30.17
2023-04-28T19:48:26.205Z,29.50
2023-04-28T19:50:53.303Z,35.10
2023-04-28T19:53:20.212Z,33.58
2023-04-28T19:55:47.407Z,31.80
2023-04-28T19:58:15.093Z,30.27
2023-04-28T20:00:42.009Z,32.58
2023-04-28T20:03:09.371Z,33.95
2023-04-28T20:05:39.560Z,35.03
2023-04-28T20:08:06.549Z,33.55
2023-04-28T20:10:33.485Z,38.65
2023-04-28T20:13:00.413Z,35.10
2023-04-28T20:15:27.226Z,33.65
2023-04-28T20:17:55.126Z,35.42
2023-04-28T20:20:22.397Z,36.63
2023-04-28T20:22:50.797Z,32.42
2023-04-28T20:25:17.816Z,32.38
2023-04-28T20:27:46.816Z,36.85
2023-04-28T20:30:14.175Z,36.45
2023-04-28T20:32:41.134Z,39.03
2023-04-28T20:35:08.260Z,35.97
2023-04-28T20:37:35.061Z,42.50
2023-04-28T20:40:01.883Z,38.78
2023-04-28T20:42:28.782Z,40.28
2023-04-28T20:44:55.565Z,43.33
2023-04-28T20:47:22.396Z,42.95
2023-04-28T20:49:49.742Z,46.88
2023-04-28T20:52:17.157Z,39.80
2023-04-28T20:54:44.022Z,37.42
2023-04-28T20:57:11.306Z,42.63
2023-04-28T20:59:38.066Z,50.22
2023-04-28T21:02:04.919Z,44.83
2023-04-28T21:04:31.726Z,46.45
2023-04-28T21:06:58.540Z,55.88
2023-04-28T21:09:25.492Z,52.42
2023-04-28T21:11:52.955Z,51.42
2023-04-28T21:14:20.293Z,55.58
2023-04-28T21:16:47.348Z,54.70
2023-04-28T21:19:14.292Z,54.53
2023-04-28T21:21:41.758Z,57.03
2023-04-28T21:24:09.299Z,49.58
2023-04-28T21:26:36.864Z,50.22
2023-04-28T21:29:03.729Z,53.50
2023-04-28T21:31:31.240Z,52.40
2023-04-28T21:33:58.266Z,48.25
2023-04-28T21:36:25.207Z,43.33
2023-04-28T21:38:52.153Z,46.70
2023-04-28T21:41:19.000Z,37.92
2023-04-28T21:43:45.961Z,39.70
2023-04-28T21:46:13.281Z,44.45
2023-04-28T21:48:40.164Z,36.35
2023-04-28T21:51:07.100Z,41.38
2023-04-28T21:53:34.050Z,34.55
2023-04-28T21:56:01.049Z,39.17
2023-04-28T21:58:27.968Z,38.15
2023-04-28T22:00:55.223Z,38.63
2023-04-28T22:03:22.293Z,39.25
2023-04-28T22:05:49.392Z,33.78
2023-04-28T22:08:17.075Z,37.67
2023-04-28T22:10:45.666Z,34.78
2023-04-28T22:13:13.722Z,32.35
2023-04-28T22:15:41.681Z,33.55
2023-04-28T22:18:08.530Z,34.85
2023-04-28T22:20:35.919Z,35.70
2023-04-28T22:23:02.806Z,35.95
2023-04-28T22:25:29.639Z,34.35
2023-04-28T22:27:56.657Z,28.02
2023-04-28T22:30:25.764Z,27.77
2023-04-28T22:32:53.421Z,26.07
2023-04-28T22:35:20.318Z,28.30
2023-04-28T22:37:47.240Z,24.90
2023-04-28T22:40:14.271Z,25.73
2023-04-28T22:42:42.612Z,25.02
2023-04-28T22:45:10.862Z,24.02
2023-04-28T22:47:39.759Z,26.65
2023-04-28T22:50:09.964Z,26.15
2023-04-28T22:52:37.257Z,27.98
2023-04-28T22:55:04.740Z,22.42
2023-04-28T22:57:31.520Z,25.90
2023-04-28T22:59:58.373Z,20.40
2023-04-28T23:02:25.478Z,21.80
2023-04-28T23:04:52.623Z,18.95
2023-04-28T23:07:19.546Z,21.48
2023-04-28T23:09:46.401Z,21.52
2023-04-28T23:12:13.297Z,21.73
2023-04-28T23:14:40.532Z,20.90
2023-04-28T23:17:07.354Z,22.00
2023-04-28T23:19:38.893Z,18.35
2023-04-28T23:22:07.422Z,19.73
2023-04-28T23:24:37.114Z,21.95
2023-04-28T23:27:04.644Z,23.75
2023-04-28T23:29:32.042Z,21.92
2023-04-28T23:31:58.930Z,21.42
2023-04-28T23:34:26.137Z,19.35
2023-04-28T23:36:52.991Z,23.08
2023-04-28T23:39:19.999Z,22.20
2023-04-28T23:41:46.814Z,28.15
2023-04-28T23:44:13.648Z,23.40
2023-04-28T23:46:40.401Z,23.40
2023-04-28T23:49:07.217Z,25.55
2023-04-28T23:51:34.205Z,22.17
2023-04-28T23:54:01.986Z,27.63
2023-04-28T23:56:29.101Z,27.27
2023-04-28T23:58:56.102Z,30.10
